createdAt,value
2018-12-30T00:00:59.594Z,10.70
2018-12-30T00:03:28.020Z,18.93
2018-12-30T00:05:56.565Z,10.97
2018-12-30T00:08:25.182Z,13.17
2018-12-30T00:10:55.240Z,13.07
2018-12-30T00:13:25.343Z,16.50
2018-12-30T00:15:53.726Z,12.23
2018-12-30T00:18:22.104Z,7.17
2018-12-30T00:20:50.464Z,9.00
2018-12-30T00:23:19.017Z,7.33
2018-12-30T00:25:47.362Z,3.00
2018-12-30T00:28:15.735Z,8.15
2018-12-30T00:30:44.122Z,4.70
2018-12-30T00:33:12.505Z,8.90
2018-12-30T00:35:40.897Z,5.87
2018-12-30T00:38:09.307Z,14.80
2018-12-30T00:40:37.660Z,8.47
2018-12-30T00:43:06.027Z,7.70
2018-12-30T00:45:34.396Z,10.33
2018-12-30T00:48:02.765Z,7.80
2018-12-30T00:50:31.150Z,10.83
2018-12-30T00:52:59.511Z,4.50
2018-12-30T00:55:27.891Z,9.57
2018-12-30T00:57:56.395Z,2.65
2018-12-30T01:00:24.767Z,6.08
2018-12-30T01:02:53.144Z,8.35
2018-12-30T01:05:21.755Z,10.73
2018-12-30T01:07:50.122Z,4.53
2018-12-30T01:10:18.489Z,11.83
2018-12-30T01:12:46.856Z,7.20
2018-12-30T01:15:15.225Z,9.87
2018-12-30T01:17:43.668Z,7.03
2018-12-30T01:20:13.769Z,9.63
2018-12-30T01:22:42.133Z,11.03
2018-12-30T01:25:10.492Z,8.90
2018-12-30T01:27:38.858Z,5.50
2018-12-30T01:30:40.665Z,5.93
2018-12-30T01:33:09.052Z,5.80
2018-12-30T01:35:37.441Z,7.87
2018-12-30T01:38:05.814Z,3.20
2018-12-30T01:40:34.178Z,4.80
2018-12-30T01:43:02.547Z,3.42
2018-12-30T01:45:30.908Z,3.17
2018-12-30T01:47:59.300Z,6.20
2018-12-30T01:50:27.679Z,5.03
2018-12-30T01:52:56.059Z,5.28
2018-12-30T01:55:24.619Z,2.80
2018-12-30T01:57:52.985Z,4.47
2018-12-30T02:00:21.403Z,9.27
2018-12-30T02:02:49.803Z,6.50
2018-12-30T02:05:18.167Z,3.10
2018-12-30T02:07:46.548Z,2.70
2018-12-30T02:10:14.932Z,1.93
2018-12-30T02:12:43.299Z,2.00
2018-12-30T02:15:11.676Z,1.90
2018-12-30T02:17:40.053Z,1.70
2018-12-30T02:20:08.463Z,1.67
2018-12-30T02:22:36.842Z,1.40
2018-12-30T02:25:05.275Z,1.30
2018-12-30T02:27:33.650Z,2.95
2018-12-30T02:30:02.006Z,1.50
2018-12-30T02:32:30.383Z,2.35
2018-12-30T02:34:58.937Z,1.57
2018-12-30T02:37:27.323Z,2.30
2018-12-30T02:39:55.677Z,1.00
2018-12-30T02:42:24.046Z,2.45
2018-12-30T02:44:52.415Z,2.00
2018-12-30T02:47:22.505Z,1.13
2018-12-30T02:49:50.874Z,3.23
2018-12-30T02:52:19.222Z,1.50
2018-12-30T02:54:47.595Z,3.50
2018-12-30T02:57:15.959Z,1.23
2018-12-30T02:59:44.511Z,5.20
2018-12-30T03:02:12.876Z,1.70
2018-12-30T03:04:41.244Z,1.40
2018-12-30T03:07:09.611Z,3.10
2018-12-30T03:09:37.987Z,5.60
2018-12-30T03:12:08.085Z,6.10
2018-12-30T03:14:36.448Z,2.23
2018-12-30T03:17:04.810Z,4.15
2018-12-30T03:19:33.277Z,3.00
2018-12-30T03:22:01.649Z,5.90
2018-12-30T03:24:30.009Z,4.30
2018-12-30T03:26:58.362Z,1.33
2018-12-30T03:29:26.746Z,1.73
2018-12-30T03:31:55.135Z,1.90
2018-12-30T03:34:23.500Z,4.80
2018-12-30T03:36:51.863Z,3.13
2018-12-30T03:39:20.244Z,1.97
2018-12-30T03:42:28.646Z,3.93
2018-12-30T03:44:57.017Z,8.68
2018-12-30T03:47:25.381Z,4.55
2018-12-30T03:49:53.762Z,5.03
2018-12-30T03:52:22.131Z,2.87
2018-12-30T03:54:50.509Z,7.10
2018-12-30T03:57:18.878Z,3.83
2018-12-30T03:59:47.230Z,4.60
2018-12-30T04:02:15.604Z,8.77
2018-12-30T04:04:43.971Z,8.55
2018-12-30T04:07:12.356Z,3.72
2018-12-30T04:09:40.745Z,8.17
2018-12-30T04:12:09.142Z,12.50
2018-12-30T04:14:37.496Z,4.77
2018-12-30T04:17:25.236Z,5.40
2018-12-30T04:19:53.602Z,7.43
2018-12-30T04:22:21.967Z,10.50
2018-12-30T04:24:50.348Z,5.27
2018-12-30T04:27:18.726Z,7.83
2018-12-30T04:29:47.075Z,9.17
2018-12-30T04:32:15.449Z,9.83
2018-12-30T04:34:43.832Z,11.48
2018-12-30T04:37:12.212Z,13.70
2018-12-30T04:39:40.589Z,11.27
2018-12-30T04:42:08.963Z,11.18
2018-12-30T04:44:37.340Z,10.00
2018-12-30T04:47:05.725Z,16.30
2018-12-30T04:49:34.122Z,13.13
2018-12-30T04:52:02.492Z,13.43
2018-12-30T04:54:30.867Z,8.27
2018-12-30T04:56:59.235Z,8.10
2018-12-30T04:59:27.604Z,11.47
2018-12-30T05:01:55.976Z,11.53
2018-12-30T05:04:24.357Z,22.50
2018-12-30T05:06:52.741Z,15.03
2018-12-30T05:09:21.122Z,16.93
2018-12-30T05:11:49.483Z,15.23
2018-12-30T05:14:17.845Z,9.90
2018-12-30T05:16:46.236Z,12.75
2018-12-30T05:19:14.607Z,12.82
2018-12-30T05:21:42.980Z,10.30
2018-12-30T05:24:11.354Z,10.35
2018-12-30T05:26:39.741Z,13.90
2018-12-30T05:29:08.105Z,11.22
2018-12-30T05:31:36.473Z,10.23
2018-12-30T05:34:04.857Z,8.33
2018-12-30T05:36:33.237Z,9.43
2018-12-30T05:39:01.621Z,15.10
2018-12-30T05:41:29.974Z,8.07
2018-12-30T05:43:58.335Z,9.17
2018-12-30T05:46:26.774Z,12.03
2018-12-30T05:48:55.138Z,13.53
2018-12-30T05:51:23.504Z,9.18
2018-12-30T05:53:51.964Z,10.80
2018-12-30T05:56:20.297Z,4.87
2018-12-30T05:58:48.677Z,9.60
2018-12-30T06:01:17.062Z,10.68
2018-12-30T06:03:45.413Z,9.93
2018-12-30T06:06:13.796Z,6.33
2018-12-30T06:08:42.164Z,9.10
2018-12-30T06:11:10.548Z,6.65
2018-12-30T06:13:38.928Z,9.93
2018-12-30T06:16:07.288Z,6.10
2018-12-30T06:18:35.665Z,7.00
2018-12-30T06:21:04.048Z,6.62
2018-12-30T06:23:32.420Z,11.07
2018-12-30T06:26:00.799Z,7.20
2018-12-30T06:28:29.282Z,8.40
2018-12-30T06:30:57.638Z,5.70
2018-12-30T06:33:26.019Z,7.00
2018-12-30T06:35:54.386Z,11.70
2018-12-30T06:38:22.756Z,5.93
2018-12-30T06:40:51.119Z,5.65
2018-12-30T06:43:19.496Z,8.50
2018-12-30T06:45:47.861Z,13.57
2018-12-30T06:48:16.254Z,12.07
2018-12-30T06:50:44.634Z,6.53
2018-12-30T06:53:12.981Z,10.53
2018-12-30T06:55:41.380Z,4.83
2018-12-30T06:58:09.759Z,6.23
2018-12-30T07:00:38.115Z,10.73
2018-12-30T07:03:06.490Z,5.63
2018-12-30T07:05:35.684Z,6.95
2018-12-30T07:08:04.067Z,10.00
2018-12-30T07:10:32.439Z,7.92
2018-12-30T07:13:00.809Z,4.78
2018-12-30T07:15:29.174Z,10.57
2018-12-30T07:17:57.555Z,7.45
2018-12-30T07:20:25.941Z,3.07
2018-12-30T07:22:54.321Z,6.37
2018-12-30T07:25:22.701Z,5.60
2018-12-30T07:27:51.073Z,3.87
2018-12-30T07:30:19.476Z,5.57
2018-12-30T07:32:47.854Z,3.00
2018-12-30T07:35:16.241Z,7.60
2018-12-30T07:37:44.589Z,4.97
2018-12-30T07:40:12.969Z,4.73
2018-12-30T07:42:41.329Z,7.07
2018-12-30T07:45:09.693Z,9.60
2018-12-30T07:47:38.093Z,9.30
2018-12-30T07:50:46.721Z,7.47
2018-12-30T07:53:15.145Z,6.95
2018-12-30T07:55:43.527Z,9.27
2018-12-30T07:58:11.898Z,13.93
2018-12-30T08:00:40.273Z,8.60
2018-12-30T08:03:08.626Z,9.88
2018-12-30T08:05:37.034Z,8.53
2018-12-30T08:08:05.385Z,9.90
2018-12-30T08:10:33.772Z,9.10
2018-12-30T08:13:02.122Z,6.97
2018-12-30T08:15:30.490Z,8.25
2018-12-30T08:17:58.855Z,5.77
2018-12-30T08:20:27.216Z,4.17
2018-12-30T08:22:55.579Z,5.93
2018-12-30T08:25:24.718Z,4.50
2018-12-30T08:27:53.096Z,10.78
2018-12-30T08:30:21.446Z,8.08
2018-12-30T08:32:49.791Z,8.73
2018-12-30T08:35:18.160Z,9.23
2018-12-30T08:37:46.511Z,5.15
2018-12-30T08:40:14.884Z,9.93
2018-12-30T08:42:43.256Z,4.83
2018-12-30T08:45:11.615Z,8.03
2018-12-30T08:47:39.966Z,12.10
2018-12-30T08:50:08.339Z,8.47
2018-12-30T08:52:36.695Z,7.27
2018-12-30T08:55:05.057Z,11.78
2018-12-30T08:57:33.439Z,9.07
2018-12-30T09:00:02.311Z,5.33
2018-12-30T09:02:31.919Z,9.67
2018-12-30T09:05:00.307Z,10.27
2018-12-30T09:07:28.658Z,7.20
2018-12-30T09:09:57.017Z,8.70
2018-12-30T09:12:25.387Z,9.07
2018-12-30T09:14:53.761Z,15.53
2018-12-30T09:17:22.104Z,5.97
2018-12-30T09:19:50.477Z,14.90
2018-12-30T09:22:18.835Z,9.53
2018-12-30T09:24:47.203Z,12.93
2018-12-30T09:27:15.563Z,11.27
2018-12-30T09:29:43.954Z,11.65
2018-12-30T09:32:12.326Z,16.20
2018-12-30T09:34:40.700Z,7.83
2018-12-30T09:37:09.061Z,17.63
2018-12-30T09:39:37.438Z,9.30
2018-12-30T09:42:05.810Z,17.33
2018-12-30T09:44:34.171Z,14.87
2018-12-30T09:47:02.551Z,19.90
2018-12-30T09:49:30.915Z,9.67
2018-12-30T09:51:59.363Z,14.53
2018-12-30T09:54:27.760Z,13.78
2018-12-30T09:56:56.126Z,13.03
2018-12-30T09:59:24.487Z,14.20
2018-12-30T10:01:52.898Z,18.55
2018-12-30T10:04:21.257Z,10.45
2018-12-30T10:06:49.620Z,13.90
2018-12-30T10:09:17.981Z,10.90
2018-12-30T10:11:46.384Z,14.47
2018-12-30T10:14:15.758Z,14.10
2018-12-30T10:19:23.079Z,13.43
2018-12-30T10:21:51.447Z,11.50
2018-12-30T10:24:19.833Z,15.77
2018-12-30T10:26:48.196Z,11.45
2018-12-30T10:29:16.579Z,10.63
2018-12-30T10:31:44.961Z,9.60
2018-12-30T10:34:13.323Z,5.33
2018-12-30T10:36:41.684Z,13.43
2018-12-30T10:39:10.059Z,11.50
2018-12-30T10:41:38.427Z,8.50
2018-12-30T10:44:06.809Z,8.90
2018-12-30T10:46:35.202Z,12.60
2018-12-30T10:49:03.605Z,17.40
2018-12-30T10:51:31.980Z,11.30
2018-12-30T10:54:00.777Z,10.88
2018-12-30T10:56:30.411Z,8.20
2018-12-30T10:58:58.773Z,17.07
2018-12-30T11:01:27.139Z,12.50
2018-12-30T11:03:55.510Z,10.30
2018-12-30T11:06:23.884Z,8.93
2018-12-30T11:08:52.256Z,7.83
2018-12-30T11:11:20.696Z,10.60
2018-12-30T11:13:49.102Z,8.88
2018-12-30T11:16:17.466Z,11.60
2018-12-30T11:18:45.861Z,12.93
2018-12-30T11:21:14.234Z,13.33
2018-12-30T11:23:43.449Z,8.60
2018-12-30T11:26:11.797Z,9.87
2018-12-30T11:28:40.197Z,11.93
2018-12-30T11:31:08.553Z,13.00
2018-12-30T11:33:36.953Z,7.70
2018-12-30T11:36:05.327Z,13.23
2018-12-30T11:39:14.286Z,8.78
2018-12-30T11:41:42.713Z,9.73
2018-12-30T11:44:11.078Z,12.87
2018-12-30T11:46:39.464Z,10.43
2018-12-30T11:49:07.825Z,9.30
2018-12-30T11:51:36.193Z,10.50
2018-12-30T11:54:04.556Z,12.77
2018-12-30T11:56:32.939Z,9.10
2018-12-30T11:59:01.398Z,7.80
2018-12-30T12:01:29.741Z,14.83
2018-12-30T12:03:58.124Z,18.52
2018-12-30T12:06:26.515Z,8.80
2018-12-30T12:08:54.888Z,9.30
2018-12-30T12:11:23.260Z,15.63
2018-12-30T12:13:51.654Z,9.57
2018-12-30T12:16:20.064Z,14.83
2018-12-30T12:18:48.689Z,14.83
2018-12-30T12:21:17.045Z,8.87
2018-12-30T12:23:45.431Z,11.02
2018-12-30T12:26:13.782Z,11.87
2018-12-30T12:28:42.141Z,6.27
2018-12-30T12:31:10.495Z,7.80
2018-12-30T12:33:39.296Z,7.45
2018-12-30T12:36:07.734Z,9.63
2018-12-30T12:38:36.085Z,7.42
2018-12-30T12:41:16.969Z,10.93
2018-12-30T12:44:04.498Z,12.70
2018-12-30T12:46:32.904Z,8.20
2018-12-30T12:49:01.255Z,8.47
2018-12-30T12:51:29.632Z,14.85
2018-12-30T12:53:58.057Z,9.00
2018-12-30T12:56:26.398Z,5.97
2018-12-30T12:58:54.771Z,4.92
2018-12-30T13:01:23.143Z,6.65
2018-12-30T13:03:51.533Z,15.20
2018-12-30T13:06:19.918Z,10.47
2018-12-30T13:08:48.311Z,9.18
2018-12-30T13:11:16.665Z,7.50
2018-12-30T13:13:45.051Z,10.38
2018-12-30T13:16:13.483Z,12.50
2018-12-30T13:18:41.848Z,11.48
2018-12-30T13:21:10.228Z,10.63
2018-12-30T13:23:39.323Z,12.37
2018-12-30T13:26:07.693Z,6.97
2018-12-30T13:28:36.076Z,8.13
2018-12-30T13:31:04.514Z,12.03
2018-12-30T13:33:32.857Z,12.13
2018-12-30T13:36:01.213Z,6.87
2018-12-30T13:38:29.599Z,15.63
2018-12-30T13:40:57.961Z,16.00
2018-12-30T13:43:26.324Z,12.93
2018-12-30T13:45:54.687Z,11.03
2018-12-30T13:48:23.063Z,12.13
2018-12-30T13:50:51.427Z,7.60
2018-12-30T13:53:19.818Z,14.67
2018-12-30T13:55:48.829Z,12.10
2018-12-30T13:58:18.275Z,11.93
2018-12-30T14:00:46.634Z,20.27
2018-12-30T14:03:15.006Z,12.17
2018-12-30T14:05:43.365Z,9.38
2018-12-30T14:08:11.724Z,9.60
2018-12-30T14:10:52.296Z,15.33
2018-12-30T14:13:20.670Z,10.95
2018-12-30T14:15:51.012Z,6.90
2018-12-30T14:18:19.129Z,13.67
2018-12-30T14:20:47.498Z,7.57
2018-12-30T14:23:15.887Z,18.53
2018-12-30T14:25:44.265Z,10.90
2018-12-30T14:28:12.623Z,7.72
2018-12-30T14:30:41.008Z,6.97
2018-12-30T14:33:09.378Z,7.80
2018-12-30T14:35:37.743Z,8.73
2018-12-30T14:38:06.133Z,9.15
2018-12-30T14:40:34.497Z,9.13
2018-12-30T14:43:02.862Z,8.35
2018-12-30T14:45:31.220Z,8.27
2018-12-30T14:47:59.604Z,9.93
2018-12-30T14:50:27.965Z,10.37
2018-12-30T14:52:56.313Z,9.27
2018-12-30T14:55:24.676Z,9.30
2018-12-30T14:57:53.044Z,7.30
2018-12-30T15:00:21.396Z,9.55
2018-12-30T15:02:49.765Z,13.57
2018-12-30T15:05:18.122Z,9.77
2018-12-30T15:07:46.505Z,10.93
2018-12-30T15:10:14.877Z,8.03
2018-12-30T15:12:43.247Z,9.87
2018-12-30T15:15:11.630Z,10.70
2018-12-30T15:17:40.007Z,17.50
2018-12-30T15:20:08.505Z,10.88
2018-12-30T15:22:36.876Z,13.20
2018-12-30T15:25:45.276Z,7.90
2018-12-30T15:28:13.653Z,12.25
2018-12-30T15:30:42.046Z,11.67
2018-12-30T15:33:10.410Z,7.93
2018-12-30T15:35:38.804Z,13.50
2018-12-30T15:38:07.181Z,7.00
2018-12-30T15:40:35.553Z,11.37
2018-12-30T15:43:03.922Z,16.00
2018-12-30T15:45:32.285Z,10.90
2018-12-30T15:48:00.661Z,8.68
2018-12-30T15:50:29.104Z,12.75
2018-12-30T15:52:57.484Z,8.60
2018-12-30T15:55:25.851Z,8.10
2018-12-30T15:57:54.234Z,8.98
2018-12-30T16:00:22.599Z,12.45
2018-12-30T16:02:50.967Z,12.47
2018-12-30T16:05:19.340Z,10.97
2018-12-30T16:07:47.711Z,11.10
2018-12-30T16:10:16.131Z,8.57
2018-12-30T16:12:44.469Z,10.63
2018-12-30T16:15:12.879Z,11.40
2018-12-30T16:17:41.257Z,13.50
2018-12-30T16:20:09.631Z,14.07
2018-12-30T16:22:38.034Z,13.83
2018-12-30T16:25:06.499Z,11.35
2018-12-30T16:27:34.851Z,20.17
2018-12-30T16:30:03.280Z,18.93
2018-12-30T16:32:31.656Z,15.67
2018-12-30T16:35:00.042Z,20.30
2018-12-30T16:37:28.403Z,15.83
2018-12-30T16:39:56.771Z,12.90
2018-12-30T16:42:25.142Z,13.20
2018-12-30T16:44:53.498Z,18.37
2018-12-30T16:47:21.862Z,13.10
2018-12-30T16:49:50.247Z,11.13
2018-12-30T16:52:18.618Z,23.77
2018-12-30T16:54:46.989Z,13.57
2018-12-30T16:57:15.361Z,17.27
2018-12-30T16:59:44.740Z,14.43
2018-12-30T17:04:52.918Z,29.13
2018-12-30T17:07:21.336Z,14.03
2018-12-30T17:09:49.684Z,22.33
2018-12-30T17:12:18.056Z,15.60
2018-12-30T17:14:46.430Z,19.47
2018-12-30T17:17:14.810Z,14.10
2018-12-30T17:19:43.169Z,10.93
2018-12-30T17:22:11.527Z,14.85
2018-12-30T17:24:39.890Z,21.90
2018-12-30T17:27:08.264Z,15.30
2018-12-30T17:29:36.616Z,18.93
2018-12-30T17:32:05.022Z,18.52
2018-12-30T17:34:33.356Z,22.85
2018-12-30T17:37:01.705Z,13.32
2018-12-30T17:39:30.085Z,16.95
2018-12-30T17:41:58.459Z,20.68
2018-12-30T17:44:26.855Z,19.90
2018-12-30T17:46:55.228Z,12.77
2018-12-30T17:49:23.593Z,11.83
2018-12-30T17:51:51.974Z,12.43
2018-12-30T17:54:20.363Z,19.75
2018-12-30T17:56:48.735Z,13.03
2018-12-30T17:59:17.099Z,25.60
2018-12-30T18:01:45.471Z,21.37
2018-12-30T18:04:13.832Z,15.60
2018-12-30T18:06:42.200Z,17.87
2018-12-30T18:09:10.570Z,19.30
2018-12-30T18:11:38.950Z,18.90
2018-12-30T18:14:07.322Z,23.70
2018-12-30T18:16:35.685Z,19.92
2018-12-30T18:19:04.115Z,19.03
2018-12-30T18:21:32.447Z,28.40
2018-12-30T18:24:00.832Z,15.55
2018-12-30T18:26:29.200Z,18.67
2018-12-30T18:28:57.578Z,22.77
2018-12-30T18:31:26.001Z,18.93
2018-12-30T18:33:54.368Z,20.43
2018-12-30T18:36:22.796Z,28.87
2018-12-30T18:38:51.208Z,24.37
2018-12-30T18:41:19.594Z,19.60
2018-12-30T18:43:47.981Z,13.25
2018-12-30T18:46:16.354Z,19.90
2018-12-30T18:48:44.767Z,23.07
2018-12-30T18:51:13.146Z,22.93
2018-12-30T18:53:42.345Z,16.57
2018-12-30T18:56:10.709Z,16.70
2018-12-30T18:58:39.067Z,24.13
2018-12-30T19:01:26.794Z,18.60
2018-12-30T19:04:29.548Z,25.32
2018-12-30T19:06:57.917Z,18.17
2018-12-30T19:09:26.289Z,29.17
2018-12-30T19:11:54.674Z,12.03
2018-12-30T19:14:23.014Z,24.17
2018-12-30T19:16:51.389Z,26.15
2018-12-30T19:19:19.747Z,23.23
2018-12-30T19:21:48.134Z,31.17
2018-12-30T19:24:16.522Z,22.25
2018-12-30T19:26:44.916Z,19.37
2018-12-30T19:29:13.280Z,31.50
2018-12-30T19:31:41.649Z,25.33
2018-12-30T19:34:10.053Z,28.53
2018-12-30T19:36:38.423Z,22.17
2018-12-30T19:39:46.825Z,29.13
2018-12-30T19:42:15.167Z,25.23
2018-12-30T19:44:43.548Z,20.80
2018-12-30T19:47:11.933Z,21.17
2018-12-30T19:49:40.314Z,28.35
2018-12-30T19:52:08.681Z,19.60
2018-12-30T19:54:37.071Z,30.60
2018-12-30T19:57:05.448Z,39.27
2018-12-30T19:59:33.819Z,31.12
2018-12-30T20:02:02.186Z,29.98
2018-12-30T20:04:30.545Z,27.00
2018-12-30T20:06:58.923Z,33.63
2018-12-30T20:09:27.310Z,36.03
2018-12-30T20:11:55.682Z,28.05
2018-12-30T20:14:24.063Z,26.47
2018-12-30T20:16:52.437Z,46.07
2018-12-30T20:19:20.802Z,25.85
2018-12-30T20:21:49.172Z,39.93
2018-12-30T20:24:17.546Z,33.60
2018-12-30T20:26:46.167Z,34.63
2018-12-30T20:29:14.527Z,41.87
2018-12-30T20:31:42.900Z,37.37
2018-12-30T20:34:11.280Z,29.40
2018-12-30T20:36:39.659Z,37.47
2018-12-30T20:39:08.031Z,31.10
2018-12-30T20:41:36.407Z,33.33
2018-12-30T20:44:04.790Z,33.80
2018-12-30T20:46:33.160Z,34.90
2018-12-30T20:49:01.532Z,43.43
2018-12-30T20:51:29.905Z,33.93
2018-12-30T20:53:58.293Z,29.32
2018-12-30T20:56:26.705Z,35.37
2018-12-30T20:58:55.065Z,30.70
2018-12-30T21:01:23.453Z,28.27
2018-12-30T21:03:51.837Z,33.93
2018-12-30T21:06:20.237Z,39.55
2018-12-30T21:08:48.592Z,29.27
2018-12-30T21:11:16.984Z,37.70
2018-12-30T21:13:45.342Z,33.67
2018-12-30T21:16:13.703Z,41.73
2018-12-30T21:18:42.077Z,29.03
2018-12-30T21:21:10.437Z,30.40
2018-12-30T21:23:39.441Z,29.35
2018-12-30T21:26:07.835Z,29.70
2018-12-30T21:28:36.220Z,37.97
2018-12-30T21:31:04.587Z,37.45
2018-12-30T21:33:32.969Z,30.00
2018-12-30T21:36:01.335Z,33.20
2018-12-30T21:38:29.714Z,27.77
2018-12-30T21:40:58.071Z,27.27
2018-12-30T21:43:26.431Z,35.67
2018-12-30T21:45:54.803Z,25.88
2018-12-30T21:48:23.175Z,30.20
2018-12-30T21:50:51.660Z,30.35
2018-12-30T21:53:20.034Z,29.67
2018-12-30T21:55:48.412Z,29.15
2018-12-30T21:58:16.794Z,28.60
2018-12-30T22:00:45.231Z,26.40
2018-12-30T22:03:13.599Z,30.48
2018-12-30T22:05:41.981Z,26.63
2018-12-30T22:08:10.348Z,24.00
2018-12-30T22:10:38.757Z,29.77
2018-12-30T22:13:07.123Z,25.83
2018-12-30T22:15:35.494Z,40.40
2018-12-30T22:18:03.856Z,30.57
2018-12-30T22:20:32.232Z,32.43
2018-12-30T22:23:00.627Z,34.63
2018-12-30T22:25:29.032Z,37.60
2018-12-30T22:27:57.427Z,35.68
2018-12-30T22:30:25.799Z,40.10
2018-12-30T22:32:54.172Z,33.83
2018-12-30T22:35:22.554Z,41.70
2018-12-30T22:37:50.946Z,35.28
2018-12-30T22:40:19.354Z,36.80
2018-12-30T22:42:47.733Z,36.13
2018-12-30T22:45:16.108Z,36.63
2018-12-30T22:47:44.493Z,37.85
2018-12-30T22:50:12.871Z,36.20
2018-12-30T22:52:41.256Z,30.90
2018-12-30T22:55:09.638Z,35.17
2018-12-30T22:57:37.987Z,26.07
2018-12-30T23:00:46.389Z,31.00
2018-12-30T23:03:14.758Z,33.23
2018-12-30T23:05:43.151Z,33.00
2018-12-30T23:08:11.532Z,30.65
2018-12-30T23:10:40.880Z,46.13
2018-12-30T23:13:09.247Z,34.98
2018-12-30T23:15:37.625Z,38.10
2018-12-30T23:18:05.993Z,30.17
2018-12-30T23:20:34.363Z,34.83
2018-12-30T23:23:02.762Z,31.87
2018-12-30T23:25:31.143Z,37.27
2018-12-30T23:27:59.502Z,39.07
2018-12-30T23:30:27.871Z,39.97
2018-12-30T23:32:56.236Z,32.70
2018-12-30T23:35:24.622Z,37.43
2018-12-30T23:37:52.993Z,31.63
2018-12-30T23:40:21.358Z,42.47
2018-12-30T23:42:49.758Z,33.63
2018-12-30T23:45:18.114Z,35.17
2018-12-30T23:47:46.501Z,33.63
2018-12-30T23:50:14.877Z,38.70
2018-12-30T23:52:43.227Z,35.27
2018-12-30T23:55:11.610Z,33.20
2018-12-30T23:57:39.992Z,39.47
